Time;durP1;ratioP1;P1;durP2;ratioP2;P2;SDS_P1;SDS_P2;PMS_P1;PMS_P2;Temp;Humidity;BMP_temperature;BMP_pressure;BME280_temperature;BME280_humidity;BME280_pressure;Samples;Min_cycle;Max_cycle;Signal;HPM_P1;HPM_P2
2023/01/17 00:01:36;;;;;;;2.13;1.60;;;4.40;99.90;;;;;;7406789;19;20310;-85
2023/01/17 00:12:14;;;;;;;2.70;1.80;;;4.30;99.90;;;;;;7299433;19;2004184;-86
2023/01/17 00:14:40;;;;;;;1.88;1.70;;;4.20;99.90;;;;;;7403611;19;20308;-91
2023/01/17 01:34:27;;;;;;;2.40;2.20;;;3.80;99.90;;;;;;7404108;19;20328;-86
2023/01/17 01:36:53;;;;;;;2.30;2.10;;;3.60;99.90;;;;;;7395303;19;20325;-83
2023/01/17 01:39:18;;;;;;;2.20;1.98;;;3.70;99.90;;;;;;7397192;19;20319;-87
2023/01/17 01:41:44;;;;;;;3.80;2.30;;;3.70;99.90;;;;;;7396920;19;20308;-81
2023/01/17 01:44:44;;;;;;;2.37;2.17;;;3.70;99.90;;;;;;7392724;19;20324;-87
2023/01/17 01:47:22;;;;;;;2.43;2.23;;;3.60;99.90;;;;;;7292166;19;2004215;-83
2023/01/17 01:49:49;;;;;;;2.65;2.42;;;3.60;99.90;;;;;;7300737;19;2004266;-85
2023/01/17 01:52:15;;;;;;;2.80;2.53;;;3.80;99.90;;;;;;7393795;19;20309;-84
2023/01/17 01:54:48;;;;;;;2.30;2.10;;;3.60;99.90;;;;;;7410603;19;20306;-87
2023/01/17 01:57:16;;;;;;;2.20;2.00;;;3.60;99.90;;;;;;7304829;19;2004225;-88
2023/01/17 01:59:45;;;;;;;2.67;2.47;;;3.50;99.90;;;;;;7412842;19;20308;-92
2023/01/17 02:02:11;;;;;;;2.53;2.33;;;3.50;99.90;;;;;;7410279;19;20333;-91
2023/01/17 02:04:37;;;;;;;3.63;2.28;;;3.60;99.90;;;;;;7409261;19;20326;-90
2023/01/17 02:07:09;;;;;;;3.83;2.55;;;3.60;99.90;;;;;;7415292;19;20312;-88
2023/01/17 02:09:35;;;;;;;2.38;2.17;;;3.50;99.90;;;;;;7411890;19;20317;-91
2023/01/17 02:12:02;;;;;;;3.00;2.50;;;3.50;99.90;;;;;;7414153;19;20319;-84
2023/01/17 02:14:28;;;;;;;3.17;2.40;;;3.50;99.90;;;;;;7412203;19;20317;-90
2023/01/17 02:17:15;;;;;;;5.32;2.30;;;3.50;99.90;;;;;;7407639;19;20332;-92
2023/01/17 02:19:56;;;;;;;3.00;2.30;;;3.50;99.90;;;;;;7412602;19;20313;-90
2023/01/17 02:23:05;;;;;;;2.15;2.03;;;3.40;99.90;;;;;;7304725;19;2004193;-90
2023/01/17 02:25:40;;;;;;;2.30;2.10;;;3.40;99.90;;;;;;7309410;19;2003987;-85
2023/01/17 02:28:24;;;;;;;3.20;2.38;;;3.40;99.90;;;;;;7409113;19;20321;-88
2023/01/17 02:30:53;;;;;;;2.50;2.20;;;3.40;99.90;;;;;;7307507;19;2003961;-92
2023/01/17 02:33:24;;;;;;;2.92;2.40;;;3.40;99.90;;;;;;7411015;19;20347;-85
2023/01/17 02:36:25;;;;;;;2.20;2.00;;;3.50;99.90;;;;;;7413597;19;20312;-87
2023/01/17 02:39:05;;;;;;;2.42;2.13;;;3.50;99.90;;;;;;7312486;19;2004351;-85
2023/01/17 02:41:37;;;;;;;2.67;2.15;;;3.60;99.90;;;;;;7412617;19;20297;-90
2023/01/17 02:44:03;;;;;;;2.27;2.07;;;3.60;99.90;;;;;;7413028;19;20305;-93
2023/01/17 02:46:29;;;;;;;3.20;2.03;;;3.60;99.90;;;;;;7388360;19;20301;-91
2023/01/17 02:48:55;;;;;;;2.45;2.25;;;3.60;99.90;;;;;;7409730;19;20335;-90
2023/01/17 02:51:44;;;;;;;2.30;2.10;;;3.70;99.90;;;;;;7411274;19;20312;-87
2023/01/17 02:54:34;;;;;;;2.03;1.83;;;3.70;99.90;;;;;;7414410;19;20316;-89
2023/01/17 02:57:18;;;;;;;3.08;2.13;;;3.70;99.90;;;;;;7309993;19;2004039;-91
2023/01/17 03:00:02;;;;;;;2.05;1.95;;;3.90;99.90;;;;;;7411204;19;20308;-91
2023/01/17 03:02:33;;;;;;;2.15;1.95;;;3.80;99.90;;;;;;7308057;19;2004196;-88
2023/01/17 03:05:12;;;;;;;1.88;1.60;;;3.90;99.90;;;;;;7411842;19;20309;-88
2023/01/17 03:07:38;;;;;;;2.08;1.88;;;4.00;99.90;;;;;;7407602;19;20849;-87
2023/01/17 03:10:05;;;;;;;2.38;1.88;;;4.00;99.90;;;;;;7408885;19;20321;-91
2023/01/17 03:12:35;;;;;;;2.10;1.65;;;4.00;99.90;;;;;;7406388;19;20313;-89
2023/01/17 03:15:00;;;;;;;2.05;1.85;;;4.00;99.90;;;;;;7409793;19;20336;-90
2023/01/17 03:17:29;;;;;;;2.42;1.98;;;4.10;99.90;;;;;;7404300;19;20301;-93
2023/01/17 03:19:55;;;;;;;3.50;1.80;;;4.10;99.90;;;;;;7385712;19;20308;-92
2023/01/17 03:22:21;;;;;;;3.10;1.83;;;4.10;99.90;;;;;;7406807;19;20304;-87
2023/01/17 03:24:46;;;;;;;3.38;2.20;;;4.10;99.90;;;;;;7406305;19;20307;-88
2023/01/17 03:27:12;;;;;;;2.03;1.77;;;4.10;99.90;;;;;;7405477;19;20297;-91
2023/01/17 03:29:38;;;;;;;2.03;1.83;;;4.20;99.90;;;;;;7405362;19;20328;-94
2023/01/17 03:32:04;;;;;;;2.90;1.70;;;4.20;99.90;;;;;;7406812;19;20316;-91
2023/01/17 03:34:30;;;;;;;1.58;1.48;;;4.20;99.90;;;;;;7410270;19;20312;-92
2023/01/17 03:36:56;;;;;;;2.30;1.80;;;4.20;99.90;;;;;;7411760;19;20349;-93
2023/01/17 03:39:21;;;;;;;1.98;1.77;;;4.20;99.90;;;;;;7411348;19;20340;-92
2023/01/17 03:41:47;;;;;;;2.30;1.60;;;4.20;99.90;;;;;;7411728;19;20341;-91
2023/01/17 03:44:12;;;;;;;2.03;1.83;;;4.30;99.90;;;;;;7412592;19;20344;-90
2023/01/17 03:46:42;;;;;;;1.80;1.70;;;4.30;99.90;;;;;;7411750;19;20308;-94
2023/01/17 03:50:03;;;;;;;1.80;1.70;;;4.30;99.90;;;;;;7421947;19;20352;-94
2023/01/17 03:52:29;;;;;;;1.73;1.60;;;4.40;99.90;;;;;;7387387;19;20361;-94
2023/01/17 03:54:54;;;;;;;2.00;1.70;;;4.30;99.90;;;;;;7387935;19;20388;-85
2023/01/17 03:57:20;;;;;;;1.75;1.60;;;4.40;99.90;;;;;;7406507;19;20328;-91
2023/01/17 03:59:46;;;;;;;2.00;1.80;;;4.40;99.90;;;;;;7404938;19;20342;-87
2023/01/17 04:02:12;;;;;;;2.55;1.52;;;4.30;99.90;;;;;;7406335;19;20388;-84
2023/01/17 04:04:37;;;;;;;1.63;1.53;;;4.40;99.90;;;;;;7411944;19;20320;-88
2023/01/17 04:07:08;;;;;;;1.75;1.65;;;4.30;99.90;;;;;;7413245;19;20309;-91
2023/01/17 04:09:36;;;;;;;1.60;1.50;;;4.40;99.90;;;;;;7412055;19;20308;-91
2023/01/17 04:12:02;;;;;;;1.55;1.45;;;4.50;99.90;;;;;;7411430;19;20312;-94
2023/01/17 04:14:27;;;;;;;2.30;1.50;;;4.50;99.90;;;;;;7414099;19;20312;-91
2023/01/17 04:16:54;;;;;;;1.83;1.60;;;4.50;99.90;;;;;;7416574;19;20301;-90
2023/01/17 04:19:20;;;;;;;1.63;1.35;;;4.60;99.90;;;;;;7418427;19;20416;-91
2023/01/17 04:21:46;;;;;;;1.48;1.38;;;4.70;99.90;;;;;;7409847;19;20347;-90
2023/01/17 04:24:11;;;;;;;1.47;1.30;;;4.70;99.90;;;;;;7411366;19;20327;-80
2023/01/17 04:26:37;;;;;;;1.30;1.20;;;4.80;99.90;;;;;;7413400;19;20352;-87
2023/01/17 04:29:03;;;;;;;1.37;1.20;;;4.80;99.90;;;;;;7412820;19;20836;-82
2023/01/17 04:31:28;;;;;;;1.45;1.30;;;4.80;99.90;;;;;;7391057;19;20364;-77
2023/01/17 04:33:54;;;;;;;1.63;1.53;;;4.80;99.90;;;;;;7411384;19;20706;-89
2023/01/17 04:36:19;;;;;;;1.30;1.20;;;4.80;99.90;;;;;;7411195;19;20361;-91
2023/01/17 04:38:45;;;;;;;1.60;1.33;;;4.90;99.90;;;;;;7407309;19;20315;-81
2023/01/17 04:41:10;;;;;;;0.90;0.88;;;4.80;99.90;;;;;;7407013;19;20336;-77
2023/01/17 04:43:36;;;;;;;1.93;1.10;;;4.90;99.90;;;;;;7410744;19;20331;-89
2023/01/17 04:46:03;;;;;;;0.80;0.80;;;5.00;99.90;;;;;;7407569;19;20349;-85
2023/01/17 04:48:30;;;;;;;0.80;0.80;;;4.90;99.90;;;;;;7407594;19;20359;-83
2023/01/17 04:51:02;;;;;;;0.70;0.70;;;5.00;99.90;;;;;;7399289;19;20336;-89
2023/01/17 04:53:35;;;;;;;0.80;0.80;;;5.00;99.90;;;;;;7400014;19;20312;-84
2023/01/17 04:56:01;;;;;;;0.70;0.70;;;5.00;99.90;;;;;;7401519;19;20344;-92
2023/01/17 04:58:27;;;;;;;0.60;0.60;;;5.00;99.90;;;;;;7392987;19;20345;-86
2023/01/17 05:00:54;;;;;;;0.60;0.60;;;5.00;99.90;;;;;;7393401;19;20404;-81
2023/01/17 05:03:20;;;;;;;0.60;0.60;;;5.00;99.90;;;;;;7393052;19;20333;-86
2023/01/17 05:05:46;;;;;;;0.80;0.80;;;5.00;99.90;;;;;;7393479;19;20905;-83
2023/01/17 05:08:13;;;;;;;0.65;0.65;;;5.00;99.90;;;;;;7384349;19;20345;-88
2023/01/17 05:10:38;;;;;;;0.63;0.63;;;5.00;99.90;;;;;;7402615;19;20359;-89
2023/01/17 05:13:04;;;;;;;0.60;0.60;;;5.00;99.90;;;;;;7380781;19;20333;-90
2023/01/17 05:15:31;;;;;;;0.80;0.70;;;5.00;99.90;;;;;;7405201;19;20363;-80
2023/01/17 05:17:58;;;;;;;0.70;0.70;;;5.00;99.90;;;;;;7412572;19;20336;-85
2023/01/17 05:20:24;;;;;;;0.60;0.60;;;4.90;99.90;;;;;;7406902;19;20319;-92
2023/01/17 05:22:55;;;;;;;1.00;0.60;;;4.80;99.90;;;;;;7409316;19;20312;-89
2023/01/17 05:25:24;;;;;;;0.70;0.70;;;4.80;99.90;;;;;;7412479;19;20324;-90
2023/01/17 05:28:46;;;;;;;0.65;0.65;;;4.80;99.90;;;;;;7387556;19;20317;-78
2023/01/17 05:34:44;;;;;;;0.90;0.70;;;4.50;99.90;;;;;;7409938;19;20316;-84
2023/01/17 05:37:10;;;;;;;0.60;0.60;;;4.50;99.90;;;;;;7418823;19;20296;-82
2023/01/17 05:39:35;;;;;;;0.60;0.60;;;4.60;99.90;;;;;;7417958;19;20304;-80
2023/01/17 05:42:01;;;;;;;0.80;0.80;;;4.50;99.90;;;;;;7418137;19;20362;-86
2023/01/17 05:44:26;;;;;;;0.80;0.80;;;4.30;99.90;;;;;;7413632;19;20360;-89
2023/01/17 05:46:53;;;;;;;0.70;0.70;;;4.40;99.90;;;;;;7411384;19;20305;-92
2023/01/17 05:49:18;;;;;;;0.60;0.60;;;4.40;99.90;;;;;;7408902;19;20329;-87
2023/01/17 05:51:44;;;;;;;0.70;0.70;;;4.40;99.90;;;;;;7408656;19;20396;-94
2023/01/17 05:54:10;;;;;;;0.70;0.70;;;4.40;99.90;;;;;;7403268;19;22259;-90
2023/01/17 05:56:35;;;;;;;0.73;0.73;;;4.40;99.90;;;;;;7408236;19;20324;-85
2023/01/17 05:59:01;;;;;;;0.80;0.80;;;4.40;99.90;;;;;;7406938;19;20901;-93
2023/01/17 06:01:26;;;;;;;1.30;0.80;;;4.40;99.90;;;;;;7408896;19;20356;-89
2023/01/17 06:03:52;;;;;;;0.80;0.80;;;4.40;99.90;;;;;;7410580;19;20368;-84
2023/01/17 06:06:18;;;;;;;0.90;0.90;;;4.30;99.90;;;;;;7411433;19;20309;-86
2023/01/17 06:08:43;;;;;;;0.77;0.77;;;4.30;99.90;;;;;;7410609;19;20324;-87
2023/01/17 06:11:09;;;;;;;0.90;0.90;;;4.20;99.90;;;;;;7411774;19;20305;-91
2023/01/17 06:13:34;;;;;;;0.80;0.80;;;4.20;99.90;;;;;;7408404;19;20905;-86
2023/01/17 06:16:01;;;;;;;0.90;0.90;;;4.20;99.90;;;;;;7408670;19;20368;-89
2023/01/17 06:18:27;;;;;;;1.50;1.40;;;4.10;99.90;;;;;;7409058;19;20349;-89
2023/01/17 06:20:53;;;;;;;1.10;1.00;;;4.20;99.90;;;;;;7408256;19;20319;-87
2023/01/17 06:23:19;;;;;;;1.48;1.20;;;4.10;99.90;;;;;;7407867;19;20317;-91
2023/01/17 06:25:45;;;;;;;0.98;0.98;;;4.30;99.90;;;;;;7406689;19;20340;-89
2023/01/17 06:28:11;;;;;;;1.30;1.20;;;4.20;99.90;;;;;;7404219;19;20324;-90
2023/01/17 06:30:37;;;;;;;1.17;1.08;;;4.20;99.90;;;;;;7401926;19;20311;-90
2023/01/17 06:33:03;;;;;;;1.65;1.40;;;4.20;99.90;;;;;;7404683;19;20313;-88
2023/01/17 06:35:29;;;;;;;1.10;1.00;;;4.20;99.90;;;;;;7402583;19;20328;-93
2023/01/17 06:37:56;;;;;;;1.40;1.30;;;4.20;99.90;;;;;;7407985;19;20325;-91
2023/01/17 06:40:25;;;;;;;2.20;1.40;;;4.30;99.90;;;;;;7398012;19;20447;-81
2023/01/17 06:42:51;;;;;;;0.90;0.90;;;4.30;99.90;;;;;;7391474;19;20312;-81
2023/01/17 06:45:17;;;;;;;1.48;1.00;;;4.30;99.90;;;;;;7394344;19;20317;-81
2023/01/17 06:47:43;;;;;;;1.20;1.10;;;4.30;99.90;;;;;;7388851;19;20301;-93
2023/01/17 06:50:11;;;;;;;0.90;0.90;;;4.30;99.90;;;;;;7394725;19;20313;-92
2023/01/17 06:52:36;;;;;;;0.93;0.93;;;4.40;99.90;;;;;;7397405;19;20342;-85
2023/01/17 06:55:02;;;;;;;1.45;1.35;;;4.40;99.90;;;;;;7399347;19;20315;-89
2023/01/17 06:57:28;;;;;;;1.50;1.40;;;4.40;99.90;;;;;;7394625;19;20340;-93
2023/01/17 06:59:53;;;;;;;1.60;1.40;;;4.40;99.90;;;;;;7393394;19;20332;-85
2023/01/17 07:02:19;;;;;;;1.07;1.07;;;4.50;99.90;;;;;;7396862;19;20324;-93
2023/01/17 07:04:44;;;;;;;0.90;0.90;;;4.50;99.90;;;;;;7396271;19;20393;-82
2023/01/17 07:07:10;;;;;;;1.10;0.93;;;4.50;99.90;;;;;;7391068;19;20321;-83
2023/01/17 07:09:37;;;;;;;0.82;0.82;;;4.60;99.90;;;;;;7391689;19;20900;-81
2023/01/17 07:12:02;;;;;;;1.10;1.00;;;4.60;99.90;;;;;;7387754;19;20670;-85
2023/01/17 07:14:28;;;;;;;1.00;1.00;;;4.70;99.90;;;;;;7385441;19;20407;-85
2023/01/17 07:16:54;;;;;;;1.00;1.00;;;4.60;99.90;;;;;;7392954;19;20328;-92
2023/01/17 07:19:20;;;;;;;0.80;0.80;;;4.60;99.90;;;;;;7395867;19;20325;-85
2023/01/17 07:21:46;;;;;;;1.58;1.48;;;4.60;99.90;;;;;;7411999;19;20333;-82
2023/01/17 07:24:11;;;;;;;2.43;2.23;;;4.60;99.90;;;;;;7408530;19;20317;-88
2023/01/17 07:26:38;;;;;;;2.28;2.08;;;4.60;99.90;;;;;;7411204;19;20390;-89
2023/01/17 07:29:04;;;;;;;1.45;1.35;;;4.70;99.90;;;;;;7396995;19;20340;-79
2023/01/17 07:31:34;;;;;;;1.60;1.50;;;4.70;99.90;;;;;;7397348;19;20344;-88
2023/01/17 07:33:59;;;;;;;1.33;1.25;;;4.70;99.90;;;;;;7410399;19;20360;-88
2023/01/17 07:36:25;;;;;;;1.48;1.38;;;4.70;99.90;;;;;;7408787;19;20317;-90
2023/01/17 07:38:51;;;;;;;1.97;1.60;;;4.60;99.90;;;;;;7404370;19;20321;-86
2023/01/17 07:41:16;;;;;;;3.37;2.07;;;4.60;99.90;;;;;;7407390;19;20321;-85
2023/01/17 07:43:42;;;;;;;1.27;1.17;;;4.60;99.90;;;;;;7408318;19;20307;-85
2023/01/17 07:46:08;;;;;;;1.83;1.23;;;4.60;99.90;;;;;;7398600;19;20316;-86
2023/01/17 07:48:33;;;;;;;1.80;1.00;;;4.60;99.90;;;;;;7394997;19;20348;-82
2023/01/17 07:50:59;;;;;;;0.98;0.95;;;4.60;99.90;;;;;;7392625;19;20324;-86
2023/01/17 07:53:26;;;;;;;1.20;1.10;;;4.60;99.90;;;;;;7394864;19;20305;-91
2023/01/17 07:55:52;;;;;;;1.00;1.00;;;4.60;99.90;;;;;;7391500;19;20340;-88
2023/01/17 07:58:20;;;;;;;1.10;1.00;;;4.80;99.90;;;;;;7394081;19;20973;-87
2023/01/17 08:00:46;;;;;;;1.00;1.00;;;4.60;99.90;;;;;;7398106;19;20334;-81
2023/01/17 08:03:13;;;;;;;0.90;0.90;;;4.60;99.90;;;;;;7393652;19;20837;-92
2023/01/17 08:05:39;;;;;;;0.88;0.82;;;4.60;99.90;;;;;;7373727;19;20300;-84
2023/01/17 08:08:05;;;;;;;1.27;1.20;;;4.60;99.90;;;;;;7393836;19;20321;-95
2023/01/17 08:10:33;;;;;;;1.25;1.15;;;4.60;99.90;;;;;;7397053;19;20755;-88
2023/01/17 08:13:00;;;;;;;1.55;1.38;;;4.70;99.90;;;;;;7394700;19;20336;-91
2023/01/17 08:15:26;;;;;;;1.80;1.13;;;4.70;99.90;;;;;;7376726;19;20845;-80
2023/01/17 08:17:52;;;;;;;0.90;0.90;;;4.70;99.90;;;;;;7389876;19;20377;-85
2023/01/17 08:20:17;;;;;;;0.93;0.93;;;4.80;99.90;;;;;;7404751;19;20297;-85
2023/01/17 08:22:43;;;;;;;1.00;1.00;;;4.70;99.90;;;;;;7398383;19;20378;-81
2023/01/17 08:25:09;;;;;;;1.50;1.27;;;4.70;99.90;;;;;;7402234;19;20324;-92
2023/01/17 08:27:35;;;;;;;1.60;1.50;;;4.80;99.90;;;;;;7404427;19;20308;-93
2023/01/17 08:30:00;;;;;;;1.40;1.30;;;4.80;99.90;;;;;;7398760;19;20882;-83
2023/01/17 08:32:26;;;;;;;1.90;1.77;;;4.80;99.90;;;;;;7402387;19;20341;-88
2023/01/17 08:34:52;;;;;;;1.17;1.17;;;4.70;99.90;;;;;;7401398;19;20313;-92
2023/01/17 08:37:17;;;;;;;1.80;1.30;;;4.80;99.90;;;;;;5995734;19;10001060;-91
2023/01/17 08:39:43;;;;;;;1.20;1.10;;;4.90;99.90;;;;;;7379816;19;21005;-77
2023/01/17 08:42:09;;;;;;;0.90;0.90;;;4.80;99.90;;;;;;7377875;19;20849;-79
2023/01/17 08:44:34;;;;;;;1.10;1.10;;;4.80;99.90;;;;;;7400694;19;20357;-84
2023/01/17 08:47:03;;;;;;;3.78;1.98;;;4.80;99.90;;;;;;7399777;19;20432;-91
2023/01/17 08:49:33;;;;;;;1.50;1.40;;;4.90;99.90;;;;;;7326792;19;20696;-91
2023/01/17 08:51:58;;;;;;;1.02;1.00;;;4.80;99.90;;;;;;7079571;19;3415871;-79
2023/01/17 08:54:33;;;;;;;1.27;1.03;;;4.90;99.90;;;;;;7398330;19;20328;-88
2023/01/17 08:57:03;;;;;;;1.60;1.20;;;4.90;99.90;;;;;;7356772;19;20339;-83
2023/01/17 08:59:29;;;;;;;1.05;1.02;;;4.90;99.90;;;;;;7398529;19;20345;-82
2023/01/17 09:01:56;;;;;;;1.92;1.65;;;4.90;99.90;;;;;;6089535;19;10001332;-78
2023/01/17 09:04:22;;;;;;;0.90;0.90;;;5.00;99.90;;;;;;7394067;19;20309;-79
2023/01/17 09:07:10;;;;;;;1.00;0.90;;;4.90;99.90;;;;;;7396730;19;20326;-80
2023/01/17 09:10:13;;;;;;;1.57;1.03;;;4.90;99.90;;;;;;7200638;19;2004659;-85
2023/01/17 09:12:59;;;;;;;1.33;1.23;;;5.00;99.90;;;;;;7369801;19;20403;-89
2023/01/17 09:15:24;;;;;;;2.07;1.37;;;5.00;99.90;;;;;;7391946;19;20312;-84
2023/01/17 09:17:54;;;;;;;1.30;1.20;;;5.00;99.90;;;;;;7390390;19;20915;-80
2023/01/17 09:20:19;;;;;;;1.10;1.00;;;5.10;99.90;;;;;;7392786;19;20309;-79
2023/01/17 09:22:45;;;;;;;1.30;1.08;;;5.10;99.90;;;;;;7402542;19;20313;-82
2023/01/17 09:25:25;;;;;;;1.70;1.20;;;5.10;99.90;;;;;;7401282;19;20826;-88
2023/01/17 09:27:51;;;;;;;1.30;1.20;;;5.10;99.90;;;;;;7399411;19;20320;-79
2023/01/17 09:30:16;;;;;;;1.30;1.25;;;5.10;99.90;;;;;;7397016;19;20853;-78
2023/01/17 09:32:42;;;;;;;3.20;1.77;;;5.10;99.90;;;;;;7399455;19;20309;-78
2023/01/17 09:35:12;;;;;;;0.80;0.80;;;5.10;99.90;;;;;;7395947;19;20312;-82
2023/01/17 09:37:38;;;;;;;2.25;1.63;;;5.10;99.90;;;;;;7395222;19;20348;-84
2023/01/17 09:40:04;;;;;;;8.48;4.22;;;5.10;99.90;;;;;;7375587;19;20377;-84
2023/01/17 09:42:38;;;;;;;6.45;2.50;;;5.20;99.90;;;;;;7394148;19;20377;-87
2023/01/17 09:45:04;;;;;;;9.43;3.00;;;5.20;99.90;;;;;;7389812;19;20313;-81
2023/01/17 09:47:50;;;;;;;6.13;3.38;;;5.40;99.90;;;;;;7388273;19;20415;-83
2023/01/17 09:50:31;;;;;;;7.70;3.20;;;5.40;99.90;;;;;;7391903;19;20408;-84
2023/01/17 09:53:01;;;;;;;5.22;2.55;;;5.40;99.90;;;;;;7288048;19;2005103;-79
2023/01/17 09:55:50;;;;;;;2.13;1.60;;;5.40;99.90;;;;;;7391679;19;20344;-79
2023/01/17 09:58:19;;;;;;;1.38;1.20;;;5.40;99.90;;;;;;7390997;19;20352;-79
2023/01/17 10:01:03;;;;;;;15.27;6.10;;;5.30;99.90;;;;;;7392940;19;20342;-84
2023/01/17 10:04:00;;;;;;;0.90;0.90;;;5.30;99.90;;;;;;7277477;19;2004593;-84
2023/01/17 10:07:11;;;;;;;2.67;1.88;;;5.20;99.90;;;;;;7285694;19;2004349;-82
2023/01/17 10:09:55;;;;;;;1.95;1.52;;;5.20;99.90;;;;;;7290863;19;2004423;-91
2023/01/17 10:12:58;;;;;;;1.40;1.00;;;5.30;99.90;;;;;;7294036;19;2004444;-84
2023/01/17 10:15:32;;;;;;;2.38;1.35;;;5.20;99.90;;;;;;7280960;19;2005998;-87
2023/01/17 10:18:37;;;;;;;1.05;1.05;;;5.30;99.90;;;;;;7387080;19;20345;-83
2023/01/17 10:21:05;;;;;;;0.98;0.88;;;5.20;99.90;;;;;;7283141;19;2004632;-80
2023/01/17 10:23:41;;;;;;;0.90;0.90;;;5.20;99.90;;;;;;7385566;19;20336;-78
2023/01/17 10:26:15;;;;;;;0.80;0.80;;;5.20;99.90;;;;;;7365734;19;20329;-80
2023/01/17 10:28:49;;;;;;;1.35;1.23;;;5.20;99.90;;;;;;7385236;19;20371;-80
2023/01/17 10:31:27;;;;;;;1.20;1.10;;;5.20;99.90;;;;;;7385908;19;20324;-79
2023/01/17 10:33:53;;;;;;;1.65;1.45;;;5.20;99.90;;;;;;7287689;19;2004421;-92
2023/01/17 10:36:24;;;;;;;2.65;2.20;;;5.30;99.90;;;;;;7388362;19;20304;-80
2023/01/17 10:38:56;;;;;;;1.27;1.17;;;5.30;99.90;;;;;;7389204;19;21249;-79
2023/01/17 10:41:39;;;;;;;1.10;1.10;;;5.30;99.90;;;;;;7389881;19;20325;-85
2023/01/17 10:44:16;;;;;;;1.40;1.30;;;5.50;99.90;;;;;;7389257;19;20385;-78
2023/01/17 10:47:08;;;;;;;0.87;0.87;;;5.50;99.90;;;;;;7386515;19;20338;-81
2023/01/17 10:49:36;;;;;;;1.13;1.02;;;5.50;99.90;;;;;;7275369;19;2004568;-78
2023/01/17 10:52:07;;;;;;;1.00;1.00;;;5.40;99.90;;;;;;7390455;19;20396;-86
2023/01/17 10:55:04;;;;;;;0.90;0.90;;;5.50;99.90;;;;;;7388852;19;20334;-78
2023/01/17 10:57:41;;;;;;;1.27;0.90;;;5.40;99.90;;;;;;7279224;19;2004351;-83
2023/01/17 11:00:38;;;;;;;1.20;1.10;;;5.30;99.90;;;;;;7372332;19;20703;-85
2023/01/17 11:03:12;;;;;;;1.10;1.00;;;5.30;99.90;;;;;;7388033;19;20307;-85
2023/01/17 11:05:42;;;;;;;1.35;0.90;;;5.40;99.90;;;;;;7377471;19;20321;-79
2023/01/17 11:08:12;;;;;;;1.45;1.35;;;5.50;99.90;;;;;;7393839;19;20305;-89
2023/01/17 11:10:45;;;;;;;1.17;0.90;;;5.50;99.90;;;;;;7386219;19;20317;-81
2023/01/17 11:13:31;;;;;;;0.90;0.90;;;5.40;99.90;;;;;;7371469;19;20333;-81
2023/01/17 11:16:24;;;;;;;2.15;1.02;;;5.50;99.90;;;;;;7285434;19;2019909;-85
2023/01/17 11:19:14;;;;;;;0.77;0.77;;;5.40;99.90;;;;;;7265332;19;2004515;-87
2023/01/17 11:21:52;;;;;;;0.90;0.90;;;5.40;99.90;;;;;;7395492;19;20312;-81
2023/01/17 11:24:32;;;;;;;0.70;0.70;;;5.30;99.90;;;;;;7391814;19;20666;-80
2023/01/17 11:26:57;;;;;;;0.88;0.88;;;5.30;99.90;;;;;;7391601;19;20319;-89
2023/01/17 11:29:35;;;;;;;0.70;0.70;;;5.30;99.90;;;;;;7370766;19;20418;-84
2023/01/17 11:32:19;;;;;;;0.80;0.80;;;5.20;99.90;;;;;;7389603;19;20333;-84
2023/01/17 11:35:14;;;;;;;0.80;0.80;;;5.20;99.90;;;;;;7390463;19;20343;-83
2023/01/17 11:37:55;;;;;;;0.90;0.90;;;5.20;99.90;;;;;;7287959;19;2004146;-82
2023/01/17 11:40:48;;;;;;;1.10;1.00;;;5.10;99.90;;;;;;7288796;19;2004317;-82
2023/01/17 11:43:30;;;;;;;1.30;1.20;;;5.20;99.90;;;;;;7392528;19;20301;-87
2023/01/17 11:46:27;;;;;;;0.95;0.90;;;5.30;99.90;;;;;;7284265;19;2004350;-84
2023/01/17 11:48:58;;;;;;;0.70;0.70;;;5.30;99.90;;;;;;7282980;19;2004432;-83
2023/01/17 11:51:45;;;;;;;0.80;0.80;;;5.30;99.90;;;;;;7389889;19;20300;-79
2023/01/17 11:54:37;;;;;;;0.77;0.77;;;5.30;99.90;;;;;;7391847;19;20320;-81
2023/01/17 11:57:05;;;;;;;0.70;0.70;;;5.30;99.90;;;;;;7283968;19;2004736;-81
2023/01/17 11:59:54;;;;;;;0.70;0.70;;;5.20;99.90;;;;;;7395169;19;20666;-86
2023/01/17 12:02:39;;;;;;;1.00;1.00;;;5.20;99.90;;;;;;7292230;19;2004571;-89
2023/01/17 12:05:26;;;;;;;0.75;0.75;;;5.10;99.90;;;;;;7391832;19;20327;-83
2023/01/17 12:08:15;;;;;;;0.90;0.90;;;5.10;99.90;;;;;;7292527;19;2004216;-82
2023/01/17 12:11:00;;;;;;;0.77;0.77;;;5.10;99.90;;;;;;7393955;19;20312;-80
2023/01/17 12:17:01;;;;;;;1.60;0.90;;;5.10;99.90;;;;;;7281072;19;2004697;-87
2023/01/17 12:19:52;;;;;;;0.90;0.90;;;5.00;99.90;;;;;;7291184;19;2004721;-80
2023/01/17 12:22:55;;;;;;;0.93;0.93;;;5.00;99.90;;;;;;7291152;19;2004965;-80
2023/01/17 12:25:53;;;;;;;0.80;0.80;;;5.10;99.90;;;;;;7288185;19;2004346;-80
2023/01/17 12:28:58;;;;;;;1.20;0.90;;;5.00;99.90;;;;;;7289951;19;2004226;-82
2023/01/17 12:31:37;;;;;;;1.00;1.00;;;5.00;99.90;;;;;;7289823;19;2004385;-89
2023/01/17 12:34:37;;;;;;;1.10;1.00;;;5.00;99.90;;;;;;7395465;19;20297;-80
2023/01/17 12:37:21;;;;;;;1.77;1.53;;;5.00;99.90;;;;;;7291187;19;2004364;-81
2023/01/17 12:40:09;;;;;;;2.08;1.48;;;4.90;99.90;;;;;;7375833;19;20323;-81
2023/01/17 12:42:42;;;;;;;3.88;2.45;;;4.90;99.90;;;;;;7373694;19;20316;-79
2023/01/17 12:45:20;;;;;;;2.85;2.00;;;5.00;99.90;;;;;;7394754;19;20315;-79
2023/01/17 12:47:53;;;;;;;3.57;1.97;;;4.90;99.90;;;;;;7389729;19;20316;-88
2023/01/17 12:50:59;;;;;;;0.80;0.80;;;4.90;99.90;;;;;;7292419;19;2004430;-83
2023/01/17 12:53:49;;;;;;;1.50;1.20;;;4.90;99.90;;;;;;7270266;19;2004375;-81
2023/01/17 12:56:21;;;;;;;0.90;0.90;;;4.90;99.90;;;;;;7239055;19;2004440;-91
2023/01/17 12:58:51;;;;;;;0.80;0.80;;;4.90;99.90;;;;;;7292381;19;2004398;-85
2023/01/17 13:01:26;;;;;;;1.30;0.82;;;4.90;99.90;;;;;;7397943;19;20312;-90
2023/01/17 13:04:30;;;;;;;3.53;2.30;;;4.90;99.90;;;;;;7399821;19;20293;-87
2023/01/17 13:06:59;;;;;;;0.77;0.77;;;5.00;99.90;;;;;;7296420;19;2004510;-91
2023/01/17 13:09:28;;;;;;;1.70;0.98;;;4.90;99.90;;;;;;7377028;19;20337;-86
2023/01/17 13:11:59;;;;;;;0.80;0.80;;;4.90;99.90;;;;;;7396592;19;20396;-91
2023/01/17 13:14:26;;;;;;;0.80;0.80;;;4.90;99.90;;;;;;7401308;19;20305;-88
2023/01/17 13:16:57;;;;;;;1.00;0.90;;;4.90;99.90;;;;;;7398794;19;20328;-93
2023/01/17 13:19:44;;;;;;;0.80;0.80;;;4.90;99.90;;;;;;7398409;19;20379;-89
2023/01/17 13:22:16;;;;;;;0.70;0.70;;;4.90;99.90;;;;;;7403395;19;20360;-83
2023/01/17 13:24:44;;;;;;;1.10;1.08;;;5.00;99.90;;;;;;7398582;19;20297;-86
2023/01/17 13:27:40;;;;;;;1.88;1.73;;;5.00;99.90;;;;;;7401091;19;20400;-90
2023/01/17 13:30:27;;;;;;;3.53;2.65;;;5.00;99.90;;;;;;7291831;19;2004490;-81
2023/01/17 13:33:20;;;;;;;5.60;3.92;;;5.00;99.90;;;;;;7296739;19;2004579;-95
2023/01/17 13:36:09;;;;;;;2.55;2.33;;;5.00;99.90;;;;;;7400563;19;20313;-83
2023/01/17 13:38:53;;;;;;;1.33;1.23;;;5.00;99.90;;;;;;7298156;19;2004231;-91
2023/01/17 13:41:33;;;;;;;1.53;1.43;;;5.00;99.90;;;;;;7296797;19;2004177;-94
2023/01/17 13:47:06;;;;;;;1.50;1.40;;;5.00;99.90;;;;;;7402571;19;20308;-92
2023/01/17 13:49:38;;;;;;;0.90;0.90;;;5.00;99.90;;;;;;7299903;19;2004474;-89
2023/01/17 13:52:19;;;;;;;3.72;2.45;;;5.00;99.90;;;;;;7402328;19;20328;-92
2023/01/17 13:54:54;;;;;;;7.57;4.40;;;5.00;99.90;;;;;;7403049;19;20746;-91
2023/01/17 13:57:27;;;;;;;9.48;5.18;;;5.00;99.90;;;;;;7298766;19;2004200;-85
2023/01/17 13:59:53;;;;;;;6.28;4.30;;;5.10;99.90;;;;;;7402682;19;20443;-92
2023/01/17 14:02:30;;;;;;;4.20;2.80;;;5.10;99.90;;;;;;7403871;19;20328;-90
2023/01/17 14:05:16;;;;;;;2.00;1.80;;;5.20;99.90;;;;;;7414265;19;20313;-87
2023/01/17 14:07:57;;;;;;;1.05;1.00;;;5.20;99.90;;;;;;7414828;19;20329;-88
2023/01/17 14:10:25;;;;;;;1.00;1.00;;;5.20;99.90;;;;;;7310550;19;2004328;-93
2023/01/17 14:12:57;;;;;;;7.32;2.17;;;5.20;99.90;;;;;;7414737;19;20324;-87
2023/01/17 14:15:26;;;;;;;4.07;2.10;;;5.20;99.90;;;;;;7413075;19;20333;-87
2023/01/17 14:17:57;;;;;;;1.80;1.63;;;5.10;99.90;;;;;;7405854;19;20301;-84
2023/01/17 14:20:26;;;;;;;2.60;1.60;;;5.10;99.90;;;;;;7409048;19;20361;-78
2023/01/17 14:23:00;;;;;;;3.90;2.83;;;5.10;99.90;;;;;;7404566;19;20885;-91
2023/01/17 14:25:44;;;;;;;1.70;1.58;;;5.10;99.90;;;;;;7404297;19;20347;-88
2023/01/17 14:28:20;;;;;;;1.65;1.50;;;5.00;99.90;;;;;;7406594;19;20360;-85
2023/01/17 14:30:46;;;;;;;5.00;2.40;;;5.00;99.90;;;;;;7409248;19;20328;-87
2023/01/17 14:33:36;;;;;;;2.28;2.08;;;5.00;99.90;;;;;;7407058;19;20364;-91
2023/01/17 14:36:22;;;;;;;2.17;1.15;;;5.00;99.90;;;;;;7295143;19;2016731;-90
2023/01/17 14:38:47;;;;;;;1.80;1.42;;;5.00;99.90;;;;;;7298602;19;2004297;-86
2023/01/17 14:41:17;;;;;;;8.45;3.88;;;4.90;99.90;;;;;;7402572;19;20308;-93
2023/01/17 14:43:44;;;;;;;12.52;5.80;;;4.90;99.90;;;;;;7402819;19;20358;-91
2023/01/17 14:46:17;;;;;;;6.05;3.13;;;4.80;99.90;;;;;;7399875;19;20317;-91
2023/01/17 14:48:43;;;;;;;3.55;2.53;;;4.90;99.90;;;;;;7400766;19;20323;-88
2023/01/17 14:51:12;;;;;;;4.43;2.03;;;4.90;99.90;;;;;;7394818;19;20396;-93
2023/01/17 14:53:39;;;;;;;2.60;1.60;;;4.90;99.90;;;;;;7389353;19;20304;-77
2023/01/17 14:56:15;;;;;;;2.40;1.77;;;4.90;99.90;;;;;;7385719;19;20361;-82
2023/01/17 14:58:41;;;;;;;18.13;7.97;;;5.00;99.90;;;;;;7385563;19;20843;-82